TimeEDT,TemperatureF,Dew PointF,Humidity,Sea Level PressureIn,VisibilityMPH,Wind Direction,Wind SpeedMPH,Gust SpeedMPH,PrecipitationIn,Events,Conditions,WindDirDegrees,DateUTC
12:53 AM,75.0,71.1,87,30.19,7.0,Calm,Calm,-,N/A,,Clear,0,2013-07-18 04:53:00
1:53 AM,75.0,71.1,87,30.19,7.0,South,4.6,-,N/A,,Clear,180,2013-07-18 05:53:00
2:53 AM,75.0,71.1,87,30.17,6.0,Calm,Calm,-,N/A,,Clear,0,2013-07-18 06:53:00
3:53 AM,75.0,70.0,84,30.17,7.0,Calm,Calm,-,N/A,,Clear,0,2013-07-18 07:53:00
4:53 AM,73.9,70.0,87,30.17,7.0,SSW,4.6,-,N/A,,Clear,210,2013-07-18 08:53:00
5:53 AM,73.9,70.0,87,30.16,6.0,SW,3.5,-,N/A,,Clear,220,2013-07-18 09:53:00
6:53 AM,73.0,70.0,90,30.16,4.0,SSW,3.5,-,N/A,,Clear,200,2013-07-18 10:53:00
7:53 AM,75.9,71.1,85,30.16,6.0,Calm,Calm,-,N/A,,Haze,0,2013-07-18 11:53:00
8:53 AM,80.1,72.0,76,30.16,9.0,West,3.5,-,N/A,,Mostly Cloudy,260,2013-07-18 12:53:00
9:53 AM,84.9,73.9,69,30.16,10.0,West,5.8,-,N/A,,Mostly Cloudy,260,2013-07-18 13:53:00
10:53 AM,88.0,73.0,61,30.15,10.0,Variable,6.9,-,N/A,,Clear,0,2013-07-18 14:53:00
11:53 AM,90.0,71.1,54,30.14,10.0,West,9.2,-,N/A,,Partly Cloudy,260,2013-07-18 15:53:00
12:53 PM,91.9,72.0,52,30.13,10.0,SW,8.1,-,N/A,,Partly Cloudy,220,2013-07-18 16:53:00
1:53 PM,91.9,71.1,50,30.11,10.0,SSW,10.4,-,N/A,,Mostly Cloudy,210,2013-07-18 17:53:00
2:53 PM,93.0,71.1,49,30.10,10.0,SW,10.4,-,N/A,,Scattered Clouds,230,2013-07-18 18:53:00
3:53 PM,93.9,72.0,49,30.07,10.0,SW,10.4,-,N/A,,Scattered Clouds,220,2013-07-18 19:53:00
4:53 PM,93.9,70.0,46,30.04,10.0,WSW,11.5,-,N/A,,Partly Cloudy,250,2013-07-18 20:53:00
5:53 PM,93.0,70.0,47,30.02,10.0,SW,12.7,-,N/A,,Clear,230,2013-07-18 21:53:00
6:53 PM,90.0,71.1,54,30.01,10.0,WSW,10.4,-,N/A,,Clear,240,2013-07-18 22:53:00
7:53 PM,90.0,72.0,55,30.00,10.0,SW,9.2,-,N/A,,Clear,230,2013-07-18 23:53:00
8:53 PM,84.0,73.0,69,29.99,9.0,SSW,5.8,-,N/A,,Clear,210,2013-07-19 00:53:00
9:53 PM,82.0,73.0,74,30.00,10.0,SSW,6.9,-,N/A,,Clear,210,2013-07-19 01:53:00
10:53 PM,80.1,72.0,76,30.00,10.0,SW,6.9,-,N/A,,Partly Cloudy,220,2013-07-19 02:53:00
11:53 PM,79.0,72.0,79,30.00,10.0,SSW,4.6,-,N/A,,Clear,210,2013-07-19 03:53:00